Terminal Aerodrome Forecast
Issued by NWS Detroit/Pontiac, MI

Home | Current Version | Previous Version | Text Only | Print | Product List | Glossary On
Versions: 1 2 3 4 5 6 7 8 9 10 11 12 13 14 15 16 17 18 19 20 21 22 23 24 25 26
752
FTUS43 KDTX 071509 AAA
TAFDTW
TAF AMD
KDTW 071509Z 0715/0818 18010KT P6SM BKN120
     FM071700 18012G21KT P6SM OVC090
     FM080100 19008KT P6SM SCT035 OVC070
     FM080400 22007KT P6SM BKN035=

USA.gov is the U.S. government's official web portal to all federal, state and local government web resources and services.